createdAt,value
2023-03-18T00:01:32.184Z,7.75
2023-03-18T00:03:59.661Z,7.72
2023-03-18T00:06:27.297Z,7.75
2023-03-18T00:08:54.595Z,7.76
2023-03-18T00:11:21.678Z,7.76
2023-03-18T00:13:49.150Z,7.74
2023-03-18T00:16:16.915Z,7.76
2023-03-18T00:18:44.636Z,7.77
2023-03-18T00:21:12.165Z,7.77
2023-03-18T00:23:39.509Z,7.73
2023-03-18T00:26:08.895Z,7.68
2023-03-18T00:28:37.386Z,7.69
2023-03-18T00:31:08.638Z,7.65
2023-03-18T00:33:37.901Z,7.62
2023-03-18T00:36:06.465Z,7.57
2023-03-18T00:38:33.728Z,7.57
2023-03-18T00:41:15.517Z,7.55
2023-03-18T00:43:52.446Z,7.53
2023-03-18T00:46:24.943Z,7.51
2023-03-18T00:48:54.463Z,7.49
2023-03-18T00:51:22.876Z,7.50
2023-03-18T00:53:55.373Z,7.49
2023-03-18T00:56:25.519Z,7.49
2023-03-18T00:58:53.954Z,7.47
2023-03-18T01:01:21.797Z,7.47
2023-03-18T01:03:51.204Z,7.46
2023-03-18T01:06:23.071Z,7.46
2023-03-18T01:08:51.666Z,7.43
2023-03-18T01:11:19.547Z,7.43
2023-03-18T01:13:47.814Z,7.43
2023-03-18T01:16:15.389Z,7.40
2023-03-18T01:18:42.935Z,7.39
2023-03-18T01:21:10.500Z,7.37
2023-03-18T01:23:38.306Z,7.31
2023-03-18T01:26:06.689Z,7.31
2023-03-18T01:28:34.573Z,7.26
2023-03-18T01:31:02.359Z,7.27
2023-03-18T01:33:30.126Z,7.27
2023-03-18T01:36:00.032Z,7.25
2023-03-18T01:38:31.218Z,7.23
2023-03-18T01:40:59.794Z,7.17
2023-03-18T01:43:33.923Z,7.13
2023-03-18T01:46:03.022Z,7.11
2023-03-18T01:48:33.144Z,7.11
2023-03-18T01:51:05.356Z,7.08
2023-03-18T01:53:39.522Z,7.07
2023-03-18T01:56:09.012Z,7.05
2023-03-18T01:58:46.546Z,7.04
2023-03-18T02:01:34.735Z,7.07
2023-03-18T02:04:04.862Z,7.08
2023-03-18T02:06:33.527Z,7.08
2023-03-18T02:09:01.426Z,7.07
2023-03-18T02:11:34.749Z,7.05
2023-03-18T02:14:04.178Z,7.08
2023-03-18T02:16:35.814Z,7.06
2023-03-18T02:19:09.622Z,7.02
2023-03-18T02:21:56.384Z,7.05
2023-03-18T02:24:38.503Z,7.03
2023-03-18T02:27:24.104Z,7.08
2023-03-18T02:29:54.794Z,7.07
2023-03-18T02:32:22.533Z,7.09
2023-03-18T02:34:49.855Z,7.08
2023-03-18T02:37:17.389Z,7.09
2023-03-18T02:39:44.509Z,7.10
2023-03-18T02:42:14.171Z,7.11
2023-03-18T02:44:44.120Z,7.14
2023-03-18T02:47:17.575Z,7.10
2023-03-18T02:49:44.657Z,7.12
2023-03-18T02:52:11.972Z,7.12
2023-03-18T02:54:39.092Z,7.15
2023-03-18T02:57:06.201Z,7.10
2023-03-18T02:59:33.309Z,7.10
2023-03-18T03:02:00.851Z,7.10
2023-03-18T03:04:28.633Z,7.10
2023-03-18T03:06:56.871Z,7.07
2023-03-18T03:09:24.007Z,7.08
2023-03-18T03:11:51.618Z,7.07
2023-03-18T03:14:18.693Z,7.10
2023-03-18T03:16:47.486Z,7.06
2023-03-18T03:19:14.615Z,7.01
2023-03-18T03:21:42.347Z,6.97
2023-03-18T03:24:09.818Z,6.97
2023-03-18T03:26:36.980Z,6.96
2023-03-18T03:29:05.067Z,6.87
2023-03-18T03:31:32.934Z,6.84
2023-03-18T03:34:00.449Z,6.77
2023-03-18T03:36:27.615Z,6.78
2023-03-18T03:38:55.413Z,6.74
2023-03-18T03:41:22.598Z,6.70
2023-03-18T03:43:49.666Z,6.68
2023-03-18T03:46:17.053Z,6.62
2023-03-18T03:48:44.182Z,6.54
2023-03-18T03:51:11.317Z,6.52
2023-03-18T03:53:38.384Z,6.41
2023-03-18T03:56:07.560Z,6.27
2023-03-18T03:58:35.699Z,6.30
2023-03-18T04:01:05.177Z,6.28
2023-03-18T04:03:32.399Z,6.18
2023-03-18T04:05:59.471Z,6.16
2023-03-18T04:08:27.071Z,6.12
2023-03-18T04:10:54.450Z,6.12
2023-03-18T04:13:21.510Z,6.10
2023-03-18T04:15:48.597Z,6.15
2023-03-18T04:18:16.839Z,6.18
2023-03-18T04:20:44.521Z,6.13
2023-03-18T04:23:11.886Z,6.09
2023-03-18T04:25:39.225Z,6.06
2023-03-18T04:28:06.625Z,6.02
2023-03-18T04:30:34.170Z,5.99
2023-03-18T04:33:03.276Z,5.90
2023-03-18T04:35:30.541Z,5.88
2023-03-18T04:37:58.172Z,5.89
2023-03-18T04:40:25.415Z,5.92
2023-03-18T04:42:53.177Z,5.88
2023-03-18T04:45:20.263Z,5.90
2023-03-18T04:47:47.357Z,5.92
2023-03-18T04:50:14.536Z,5.91
2023-03-18T04:52:42.698Z,5.89
2023-03-18T04:55:11.026Z,5.86
2023-03-18T04:57:38.766Z,5.83
2023-03-18T05:00:09.659Z,5.80
2023-03-18T05:02:39.869Z,5.73
2023-03-18T05:05:08.167Z,5.73
2023-03-18T05:07:35.715Z,5.70
2023-03-18T05:10:04.686Z,5.69
2023-03-18T05:12:32.203Z,5.68
2023-03-18T05:14:59.324Z,5.73
2023-03-18T05:17:26.401Z,5.74
2023-03-18T05:19:53.508Z,5.71
2023-03-18T05:22:21.908Z,5.69
2023-03-18T05:24:49.601Z,5.72
2023-03-18T05:27:18.574Z,5.74
2023-03-18T05:29:45.841Z,5.73
2023-03-18T05:32:14.688Z,5.71
2023-03-18T05:34:42.229Z,5.71
2023-03-18T05:37:11.214Z,5.67
2023-03-18T05:39:38.645Z,5.62
2023-03-18T05:42:06.363Z,5.66
2023-03-18T05:44:33.977Z,5.70
2023-03-18T05:47:02.015Z,5.74
2023-03-18T05:49:29.371Z,5.81
2023-03-18T05:51:56.966Z,5.85
2023-03-18T05:54:24.112Z,5.89
2023-03-18T05:56:52.815Z,5.93
2023-03-18T05:59:20.898Z,5.94
2023-03-18T06:01:49.060Z,5.88
2023-03-18T06:04:17.315Z,5.93
2023-03-18T06:06:44.719Z,6.02
2023-03-18T06:09:13.414Z,6.07
2023-03-18T06:11:40.768Z,6.12
2023-03-18T06:14:08.833Z,6.14
2023-03-18T06:16:36.366Z,6.21
2023-03-18T06:19:03.971Z,6.24
2023-03-18T06:21:33.912Z,6.33
2023-03-18T06:24:02.650Z,6.42
2023-03-18T06:26:30.088Z,6.52
2023-03-18T06:28:58.382Z,6.63
2023-03-18T06:31:26.213Z,6.69
2023-03-18T06:33:53.293Z,6.78
2023-03-18T06:36:21.607Z,6.84
2023-03-18T06:38:48.685Z,6.92
2023-03-18T06:41:16.268Z,7.04
2023-03-18T06:43:43.735Z,7.13
2023-03-18T06:46:10.850Z,7.23
2023-03-18T06:48:40.257Z,7.32
2023-03-18T06:51:08.013Z,7.43
2023-03-18T06:53:36.420Z,7.51
2023-03-18T06:56:05.963Z,7.56
2023-03-18T06:58:33.475Z,7.66
2023-03-18T07:01:01.440Z,7.75
2023-03-18T07:03:28.606Z,7.86
2023-03-18T07:05:56.099Z,7.95
2023-03-18T07:08:23.558Z,8.05
2023-03-18T07:10:55.280Z,8.14
2023-03-18T07:13:24.761Z,8.26
2023-03-18T07:15:52.225Z,8.34
2023-03-18T07:18:19.600Z,8.45
2023-03-18T07:20:46.701Z,8.56
2023-03-18T07:23:13.765Z,8.75
2023-03-18T07:25:42.019Z,8.86
2023-03-18T07:28:09.360Z,8.94
2023-03-18T07:30:38.043Z,8.98
2023-03-18T07:33:05.667Z,8.98
2023-03-18T07:35:33.006Z,9.08
2023-03-18T07:38:00.176Z,9.12
2023-03-18T07:40:27.378Z,9.16
2023-03-18T07:42:54.489Z,9.27
2023-03-18T07:45:21.555Z,9.37
2023-03-18T07:47:48.906Z,9.44
2023-03-18T07:50:16.381Z,9.61
2023-03-18T07:52:43.422Z,9.78
2023-03-18T07:55:12.008Z,9.96
2023-03-18T07:57:39.276Z,10.15
2023-03-18T08:00:07.558Z,10.32
2023-03-18T08:02:36.108Z,10.44
2023-03-18T08:05:03.944Z,10.55
2023-03-18T08:07:32.426Z,10.69
2023-03-18T08:09:59.499Z,10.74
2023-03-18T08:12:26.690Z,10.80
2023-03-18T08:14:53.872Z,10.94
2023-03-18T08:17:21.254Z,11.11
2023-03-18T08:19:49.038Z,11.23
2023-03-18T08:22:16.085Z,11.30
2023-03-18T08:24:45.149Z,11.35
2023-03-18T08:27:12.627Z,11.48
2023-03-18T08:29:39.680Z,11.62
2023-03-18T08:32:07.690Z,11.75
2023-03-18T08:34:35.940Z,11.90
2023-03-18T08:37:04.226Z,12.03
2023-03-18T08:39:32.256Z,12.19
2023-03-18T08:41:59.857Z,12.34
2023-03-18T08:44:26.885Z,12.49
2023-03-18T08:46:54.407Z,12.66
2023-03-18T08:49:21.544Z,12.78
2023-03-18T08:51:48.622Z,12.95
2023-03-18T08:54:15.752Z,13.10
2023-03-18T08:56:42.842Z,13.31
2023-03-18T08:59:10.378Z,13.52
2023-03-18T09:01:38.133Z,13.78
2023-03-18T09:04:05.260Z,13.99
2023-03-18T09:06:32.726Z,14.18
2023-03-18T09:08:59.811Z,14.41
2023-03-18T09:11:27.924Z,14.59
2023-03-18T09:13:54.962Z,14.83
2023-03-18T09:16:22.852Z,15.00
2023-03-18T09:18:50.002Z,15.23
2023-03-18T09:21:17.294Z,15.38
2023-03-18T09:23:44.413Z,15.43
2023-03-18T09:26:11.618Z,15.52
2023-03-18T09:28:38.666Z,15.63
2023-03-18T09:31:06.199Z,15.66
2023-03-18T09:33:34.085Z,15.54
2023-03-18T09:36:01.286Z,15.57
2023-03-18T09:38:28.444Z,15.64
2023-03-18T09:41:03.228Z,15.74
2023-03-18T09:43:44.856Z,15.78
2023-03-18T09:46:23.231Z,15.79
2023-03-18T09:49:16.579Z,15.88
2023-03-18T09:52:20.920Z,15.97
2023-03-18T09:55:02.790Z,16.00
2023-03-18T09:57:33.922Z,15.96
2023-03-18T10:00:15.988Z,16.02
2023-03-18T10:02:48.806Z,16.04
2023-03-18T10:05:18.317Z,16.16
2023-03-18T10:07:47.517Z,16.29
2023-03-18T10:10:30.801Z,16.40
2023-03-18T10:13:08.461Z,16.29
2023-03-18T10:15:45.632Z,16.26
2023-03-18T10:18:15.343Z,16.19
2023-03-18T10:20:53.264Z,16.08
2023-03-18T10:23:37.559Z,16.02
2023-03-18T10:26:08.360Z,16.03
2023-03-18T10:29:03.937Z,16.14
2023-03-18T10:31:40.829Z,16.13
2023-03-18T10:34:15.641Z,16.22
2023-03-18T10:37:06.353Z,16.20
2023-03-18T10:39:34.614Z,16.39
2023-03-18T10:42:15.741Z,16.46
2023-03-18T10:44:42.834Z,16.57
2023-03-18T10:47:15.602Z,16.58
2023-03-18T10:49:45.858Z,16.54
2023-03-18T10:52:43.572Z,16.54
2023-03-18T10:55:16.441Z,16.66
2023-03-18T10:57:43.971Z,16.77
2023-03-18T11:00:34.782Z,16.67
2023-03-18T11:03:04.307Z,16.76
2023-03-18T11:05:35.455Z,16.84
2023-03-18T11:08:09.068Z,16.81
2023-03-18T11:10:40.427Z,16.81
2023-03-18T11:13:07.511Z,16.75
2023-03-18T11:15:40.488Z,16.82
2023-03-18T11:18:14.386Z,17.00
2023-03-18T11:20:48.275Z,17.17
2023-03-18T11:23:20.961Z,17.18
2023-03-18T11:25:55.727Z,17.15
2023-03-18T11:28:27.096Z,17.23
2023-03-18T11:31:00.299Z,17.04
2023-03-18T11:33:33.305Z,17.00
2023-03-18T11:36:06.397Z,16.71
2023-03-18T11:38:35.764Z,16.62
2023-03-18T11:41:08.527Z,16.69
2023-03-18T11:43:36.654Z,16.77
2023-03-18T11:46:05.609Z,16.87
2023-03-18T11:48:40.911Z,17.00
2023-03-18T11:51:35.366Z,17.03
2023-03-18T11:54:10.554Z,17.01
2023-03-18T11:56:47.127Z,17.06
2023-03-18T11:59:30.824Z,17.16
2023-03-18T12:02:12.500Z,17.16
2023-03-18T12:05:01.380Z,17.18
2023-03-18T12:07:40.570Z,17.19
2023-03-18T12:10:31.470Z,17.16
2023-03-18T12:13:06.863Z,17.12
2023-03-18T12:15:47.591Z,17.14
2023-03-18T12:18:44.630Z,17.13
2023-03-18T12:21:40.210Z,17.08
2023-03-18T12:24:37.021Z,17.01
2023-03-18T12:27:38.550Z,17.01
2023-03-18T12:30:45.081Z,17.02
2023-03-18T12:33:35.979Z,16.99
2023-03-18T12:36:12.880Z,16.94
2023-03-18T12:39:02.542Z,17.00
2023-03-18T12:41:42.148Z,17.10
2023-03-18T12:44:27.889Z,17.25
2023-03-18T12:47:01.437Z,17.27
2023-03-18T12:49:33.078Z,17.32
2023-03-18T12:52:05.342Z,17.29
2023-03-18T12:54:38.701Z,17.38
2023-03-18T12:57:14.129Z,17.31
2023-03-18T12:59:51.833Z,17.31
2023-03-18T13:02:40.318Z,17.44
2023-03-18T13:05:20.855Z,17.63
2023-03-18T13:07:54.700Z,17.70
2023-03-18T13:10:23.699Z,17.63
2023-03-18T13:12:59.754Z,17.73
2023-03-18T13:15:35.342Z,17.88
2023-03-18T13:18:22.561Z,17.90
2023-03-18T13:20:52.160Z,17.86
2023-03-18T13:23:47.074Z,17.83
2023-03-18T13:26:50.229Z,17.90
2023-03-18T13:29:39.688Z,18.04
2023-03-18T13:32:31.876Z,18.14
2023-03-18T13:35:17.761Z,18.25
2023-03-18T13:38:01.239Z,18.35
2023-03-18T13:40:42.753Z,18.34
2023-03-18T13:43:15.283Z,18.35
2023-03-18T13:45:49.963Z,18.36
2023-03-18T13:48:20.650Z,18.31
2023-03-18T13:50:49.149Z,18.32
2023-03-18T13:53:27.619Z,18.37
2023-03-18T13:55:57.961Z,18.25
2023-03-18T13:58:28.253Z,18.35
2023-03-18T14:00:55.749Z,18.41
2023-03-18T14:03:48.804Z,18.37
2023-03-18T14:06:15.867Z,18.22
2023-03-18T14:08:42.927Z,18.17
2023-03-18T14:11:28.552Z,18.15
2023-03-18T14:14:04.172Z,18.12
2023-03-18T14:16:33.909Z,18.22
2023-03-18T14:19:06.058Z,18.12
2023-03-18T14:21:34.682Z,17.93
2023-03-18T14:24:07.647Z,17.81
2023-03-18T14:26:35.249Z,17.76
2023-03-18T14:29:05.368Z,17.79
2023-03-18T14:31:38.583Z,17.83
2023-03-18T14:34:17.681Z,17.89
2023-03-18T14:37:12.828Z,17.90
2023-03-18T14:39:42.508Z,17.93
2023-03-18T14:42:27.845Z,17.97
2023-03-18T14:44:59.296Z,17.99
2023-03-18T14:47:39.835Z,17.99
2023-03-18T14:50:28.658Z,18.03
2023-03-18T14:53:02.007Z,18.10
2023-03-18T14:55:34.077Z,18.10
2023-03-18T14:58:01.984Z,18.18
2023-03-18T15:00:32.409Z,18.27
2023-03-18T15:03:23.605Z,18.40
2023-03-18T15:05:51.159Z,18.45
2023-03-18T15:08:20.505Z,18.42
2023-03-18T15:10:49.746Z,18.31
2023-03-18T15:13:19.158Z,18.22
2023-03-18T15:15:47.142Z,18.14
2023-03-18T15:18:20.655Z,18.10
2023-03-18T15:20:51.838Z,17.97
2023-03-18T15:23:25.443Z,17.92
2023-03-18T15:25:53.270Z,17.89
2023-03-18T15:28:23.628Z,17.78
2023-03-18T15:30:56.052Z,17.74
2023-03-18T15:33:28.591Z,17.73
2023-03-18T15:35:58.019Z,17.76
2023-03-18T15:38:29.198Z,17.79
2023-03-18T15:41:05.749Z,17.80
2023-03-18T15:43:40.185Z,17.81
2023-03-18T15:46:27.263Z,17.82
2023-03-18T15:48:56.170Z,17.82
2023-03-18T15:51:30.002Z,17.78
2023-03-18T15:54:02.897Z,17.77
2023-03-18T15:56:32.338Z,17.71
2023-03-18T15:59:06.894Z,17.69
2023-03-18T16:01:35.342Z,17.69
2023-03-18T16:04:05.038Z,17.58
2023-03-18T16:06:34.623Z,17.50
2023-03-18T16:09:10.566Z,17.45
2023-03-18T16:11:37.705Z,17.46
2023-03-18T16:14:04.944Z,17.41
2023-03-18T16:16:33.519Z,17.23
2023-03-18T16:19:01.089Z,16.96
2023-03-18T16:21:28.375Z,16.70
2023-03-18T16:23:56.085Z,16.49
2023-03-18T16:26:23.877Z,16.33
2023-03-18T16:28:51.045Z,16.10
2023-03-18T16:31:18.746Z,15.90
2023-03-18T16:33:47.358Z,15.61
2023-03-18T16:36:24.958Z,15.41
2023-03-18T16:38:52.144Z,15.32
2023-03-18T16:41:20.287Z,15.18
2023-03-18T16:43:50.168Z,15.05
2023-03-18T16:46:17.904Z,14.93
2023-03-18T16:48:45.138Z,14.77
2023-03-18T16:51:13.258Z,14.64
2023-03-18T16:53:40.422Z,14.55
2023-03-18T16:56:19.187Z,14.27
2023-03-18T16:58:46.668Z,14.17
2023-03-18T17:01:19.325Z,14.00
2023-03-18T17:03:48.175Z,13.95
2023-03-18T17:06:16.486Z,13.81
2023-03-18T17:08:44.803Z,13.73
2023-03-18T17:11:18.181Z,13.73
2023-03-18T17:13:45.816Z,13.47
2023-03-18T17:16:16.385Z,13.27
2023-03-18T17:18:43.443Z,13.13
2023-03-18T17:21:13.142Z,13.04
2023-03-18T17:23:40.982Z,12.91
2023-03-18T17:26:13.099Z,12.81
2023-03-18T17:28:45.372Z,12.70
2023-03-18T17:31:13.178Z,12.51
2023-03-18T17:33:41.196Z,12.44
2023-03-18T17:36:08.907Z,12.34
2023-03-18T17:38:36.461Z,12.24
2023-03-18T17:41:05.899Z,12.23
2023-03-18T17:43:34.953Z,12.14
2023-03-18T17:46:03.836Z,12.06
2023-03-18T17:48:32.896Z,12.03
2023-03-18T17:51:16.284Z,11.97
2023-03-18T17:53:53.156Z,11.87
2023-03-18T17:56:20.853Z,11.77
2023-03-18T17:58:50.453Z,11.67
2023-03-18T18:01:24.373Z,11.62
2023-03-18T18:03:51.502Z,11.54
2023-03-18T18:06:21.413Z,11.52
2023-03-18T18:08:49.220Z,11.35
2023-03-18T18:11:26.698Z,11.30
2023-03-18T18:13:58.356Z,11.19
2023-03-18T18:16:25.614Z,11.09
2023-03-18T18:18:53.114Z,11.04
2023-03-18T18:21:21.698Z,10.98
2023-03-18T18:23:49.242Z,10.93
2023-03-18T18:26:20.734Z,10.94
2023-03-18T18:28:50.249Z,10.97
2023-03-18T18:31:19.435Z,10.94
2023-03-18T18:33:49.658Z,10.83
2023-03-18T18:36:17.952Z,10.82
2023-03-18T18:38:45.606Z,10.76
2023-03-18T18:41:12.748Z,10.75
2023-03-18T18:43:40.043Z,10.80
2023-03-18T18:46:13.776Z,10.85
2023-03-18T18:48:41.294Z,10.85
2023-03-18T18:51:15.444Z,10.84
2023-03-18T18:53:43.606Z,10.89
2023-03-18T18:56:32.275Z,10.93
2023-03-18T18:59:00.659Z,10.91
2023-03-18T19:01:28.048Z,10.94
2023-03-18T19:03:55.650Z,10.93
2023-03-18T19:06:32.075Z,10.92
2023-03-18T19:09:00.810Z,10.92
2023-03-18T19:11:28.381Z,10.95
2023-03-18T19:14:14.801Z,10.91
2023-03-18T19:16:42.464Z,10.82
2023-03-18T19:19:21.320Z,10.69
2023-03-18T19:21:50.553Z,10.58
2023-03-18T19:24:45.804Z,10.55
2023-03-18T19:27:27.637Z,10.52
2023-03-18T19:29:58.696Z,10.51
2023-03-18T19:32:26.216Z,10.41
2023-03-18T19:34:54.654Z,10.36
2023-03-18T19:37:28.932Z,10.41
2023-03-18T19:39:57.739Z,10.46
2023-03-18T19:42:25.480Z,10.50
2023-03-18T19:44:52.570Z,10.50
2023-03-18T19:47:23.991Z,10.51
2023-03-18T19:49:51.601Z,10.49
2023-03-18T19:52:21.954Z,10.47
2023-03-18T19:54:49.546Z,10.50
2023-03-18T19:57:28.180Z,10.42
2023-03-18T19:59:57.390Z,10.35
2023-03-18T20:02:30.447Z,10.30
2023-03-18T20:04:59.470Z,10.29
2023-03-18T20:07:28.934Z,10.29
2023-03-18T20:09:56.266Z,10.25
2023-03-18T20:12:34.064Z,10.19
2023-03-18T20:15:01.157Z,10.26
2023-03-18T20:17:34.185Z,10.30
2023-03-18T20:20:01.914Z,10.31
2023-03-18T20:22:32.695Z,10.30
2023-03-18T20:25:01.240Z,10.25
2023-03-18T20:27:29.853Z,10.25
2023-03-18T20:29:57.448Z,10.23
2023-03-18T20:32:24.924Z,10.25
2023-03-18T20:34:52.187Z,10.24
2023-03-18T20:37:23.790Z,10.23
2023-03-18T20:39:52.320Z,10.28
2023-03-18T20:42:19.519Z,10.27
2023-03-18T20:44:47.144Z,10.28
2023-03-18T20:47:14.620Z,10.29
2023-03-18T20:49:44.662Z,10.28
2023-03-18T20:52:27.982Z,10.20
2023-03-18T20:54:56.688Z,10.19
2023-03-18T20:57:24.639Z,10.15
2023-03-18T20:59:51.788Z,10.13
2023-03-18T21:02:32.745Z,10.08
2023-03-18T21:05:01.047Z,10.02
2023-03-18T21:07:28.383Z,9.97
2023-03-18T21:09:55.651Z,9.99
2023-03-18T21:12:22.863Z,9.96
2023-03-18T21:14:50.134Z,9.92
2023-03-18T21:17:19.642Z,9.90
2023-03-18T21:19:47.998Z,9.87
2023-03-18T21:22:23.602Z,9.78
2023-03-18T21:24:50.697Z,9.72
2023-03-18T21:27:22.925Z,9.71
2023-03-18T21:29:51.170Z,9.65
2023-03-18T21:32:27.301Z,9.63
2023-03-18T21:34:55.582Z,9.58
2023-03-18T21:37:24.714Z,9.50
2023-03-18T21:39:52.222Z,9.47
2023-03-18T21:42:25.551Z,9.45
2023-03-18T21:44:53.042Z,9.36
2023-03-18T21:47:22.569Z,9.41
2023-03-18T21:49:49.914Z,9.40
2023-03-18T21:52:21.011Z,9.35
2023-03-18T21:54:48.134Z,9.35
2023-03-18T21:57:19.566Z,9.30
2023-03-18T21:59:46.652Z,9.32
2023-03-18T22:02:21.484Z,9.33
2023-03-18T22:04:48.756Z,9.32
2023-03-18T22:07:16.454Z,9.30
2023-03-18T22:09:44.670Z,9.31
2023-03-18T22:12:14.296Z,9.26
2023-03-18T22:14:41.477Z,9.28
2023-03-18T22:17:19.731Z,9.35
2023-03-18T22:19:47.491Z,9.35
2023-03-18T22:22:16.773Z,9.34
2023-03-18T22:24:44.414Z,9.34
2023-03-18T22:27:19.961Z,9.33
2023-03-18T22:29:50.812Z,9.36
2023-03-18T22:32:39.521Z,9.31
2023-03-18T22:35:12.273Z,9.35
2023-03-18T22:37:39.706Z,9.37
2023-03-18T22:40:07.658Z,9.38
2023-03-18T22:42:34.834Z,9.40
2023-03-18T22:45:02.031Z,9.43
2023-03-18T22:47:29.187Z,9.42
2023-03-18T22:49:56.246Z,9.43
2023-03-18T22:52:29.760Z,9.40
2023-03-18T22:55:01.435Z,9.39
2023-03-18T22:57:29.246Z,9.37
2023-03-18T22:59:56.725Z,9.31
2023-03-18T23:02:26.649Z,9.24
2023-03-18T23:04:55.485Z,9.21
2023-03-18T23:07:28.536Z,9.19
2023-03-18T23:09:57.407Z,9.15
2023-03-18T23:12:25.915Z,9.10
2023-03-18T23:14:53.643Z,9.01
2023-03-18T23:17:23.238Z,9.03
2023-03-18T23:19:51.089Z,9.05
2023-03-18T23:22:23.083Z,9.10
2023-03-18T23:24:51.411Z,9.11
2023-03-18T23:27:20.164Z,9.13
2023-03-18T23:29:47.920Z,9.09
2023-03-18T23:32:16.256Z,9.08
2023-03-18T23:34:44.081Z,8.94
2023-03-18T23:37:11.896Z,8.88
2023-03-18T23:39:46.318Z,8.77
2023-03-18T23:42:14.909Z,8.68
2023-03-18T23:44:42.609Z,8.68
2023-03-18T23:47:10.763Z,8.74
2023-03-18T23:49:38.219Z,8.71
2023-03-18T23:52:15.002Z,8.73
2023-03-18T23:54:42.183Z,8.76
2023-03-18T23:57:11.724Z,8.76
2023-03-18T23:59:39.160Z,8.77
